Cuney, Texas
Current Conditions -  °F | °C
As of 8:55 AM on Monday 22 Dec 2014 (Local Time) from KJSO Reporting Station
Haze Haze  
Wind Chill: 58°   Ceiling: 500
Heat Index: 58°   Visibility: 5mi
Dew Point: 56°   Wind: 13mph
Humidity: 94%   Direction: 190°S
Pressure: 29.7"   Gusts: 17mph
Location:  32.03°N, 95.42°W
Report Text: KJSO 221455Z AUTO 19011G15KT 5SM BR OVC005 14/13 A2970 RMK AO2 T01450136
Loading
Personal Weather Stations






























Interactive Weather Map New forecast layout! Learn more

10-Day Weather Forecast

Advertisements
Track Severe Weather on mobile